Time;durP1;ratioP1;P1;durP2;ratioP2;P2;SDS_P1;SDS_P2;PMS_P1;PMS_P2;Temp;Humidity;BMP_temperature;BMP_pressure;BME280_temperature;BME280_humidity;BME280_pressure;Samples;Min_cycle;Max_cycle;Signal;HPM_P1;HPM_P2
2021/05/22 00:02:00;;;;;;;8.15;3.47;;;;;;;13.69;56.38;98940.47;1870685;76;22144;-59
2021/05/22 00:04:35;;;;;;;5.45;2.95;;;;;;;13.67;56.34;98940.91;1870640;76;22160;-60
2021/05/22 00:07:10;;;;;;;5.35;2.65;;;;;;;13.65;56.37;98951.70;1870661;76;22136;-60
2021/05/22 00:10:11;;;;;;;5.40;2.60;;;;;;;13.63;56.37;98942.62;1870376;75;22218;-59
2021/05/22 00:12:46;;;;;;;6.53;2.90;;;;;;;13.62;56.35;98942.20;1870642;76;22120;-59
2021/05/22 00:15:21;;;;;;;6.17;2.98;;;;;;;13.60;56.25;98943.92;1854754;76;28349;-58
2021/05/22 00:18:17;;;;;;;5.33;3.10;;;;;;;13.63;56.05;98935.28;1854369;75;27896;-59
2021/05/22 00:20:57;;;;;;;5.53;3.02;;;;;;;13.66;56.10;98938.75;1869766;76;22176;-59
2021/05/22 00:23:32;;;;;;;5.10;2.90;;;;;;;13.67;55.94;98946.95;1870662;76;22109;-59
2021/05/22 00:26:18;;;;;;;4.45;2.58;;;;;;;13.62;55.79;98944.80;1827502;78;21199;-60
2021/05/22 00:28:52;;;;;;;6.80;3.62;;;;;;;13.65;55.91;98946.08;1870669;76;22105;-58
2021/05/22 00:31:27;;;;;;;6.72;3.30;;;;;;;13.63;55.99;98954.28;1889952;76;22108;-57
2021/05/22 00:34:02;;;;;;;7.20;3.77;;;;;;;13.62;56.18;98954.31;1889969;76;22116;-58
2021/05/22 00:36:37;;;;;;;9.95;4.67;;;;;;;13.61;56.13;98957.75;1870703;76;22186;-59
2021/05/22 00:39:17;;;;;;;6.37;3.87;;;;;;;13.58;56.04;98954.73;1869804;76;22580;-59
2021/05/22 00:42:03;;;;;;;12.25;4.83;;;;;;;13.57;56.04;98950.86;1869806;76;22567;-60
2021/05/22 00:44:37;;;;;;;9.20;4.62;;;;;;;13.54;56.18;98949.13;1835013;77;22160;-58
2021/05/22 00:47:13;;;;;;;10.70;4.25;;;;;;;13.53;56.27;98948.69;1870347;76;22554;-60
2021/05/22 00:49:49;;;;;;;7.92;4.40;;;;;;;13.51;56.51;98951.73;1854719;76;28344;-60
2021/05/22 00:52:24;;;;;;;9.05;3.95;;;;;;;13.54;56.53;98945.24;1870651;76;22189;-59
2021/05/22 00:54:59;;;;;;;8.55;4.15;;;;;;;13.54;56.53;98945.24;1854782;76;27884;-58
2021/05/22 00:57:34;;;;;;;6.30;3.87;;;;;;;13.59;56.61;98943.51;1870655;76;22220;-59
2021/05/22 01:00:14;;;;;;;7.85;4.28;;;;;;;13.58;56.77;98939.61;1873869;76;27909;-59
2021/05/22 01:02:49;;;;;;;10.13;4.28;;;;;;;13.61;56.59;98935.30;1870652;76;22109;-60
2021/05/22 01:05:24;;;;;;;7.05;4.00;;;;;;;13.58;56.83;98937.02;1870710;76;22563;-59
2021/05/22 01:08:05;;;;;;;8.05;3.87;;;;;;;13.56;57.08;98942.22;1854954;76;27881;-58
2021/05/22 01:10:42;;;;;;;5.45;3.50;;;;;;;13.61;57.03;98940.48;1870722;76;22117;-59
2021/05/22 01:13:38;;;;;;;5.80;3.50;;;;;;;13.57;57.04;98944.38;1827587;78;21087;-57
2021/05/22 01:16:16;;;;;;;10.85;4.08;;;;;;;13.59;56.98;98938.77;1870705;76;22531;-58
2021/05/22 01:18:53;;;;;;;7.78;4.05;;;;;;;13.59;57.06;98946.10;1889961;76;22176;-57
2021/05/22 01:21:28;;;;;;;8.08;4.03;;;;;;;13.58;57.16;98945.66;1870695;76;22101;-58
2021/05/22 01:24:17;;;;;;;8.20;4.10;;;;;;;13.51;57.06;98942.66;1827660;78;21288;-57
2021/05/22 01:26:52;;;;;;;8.48;4.28;;;;;;;13.55;57.26;98948.25;1870665;76;22109;-58
2021/05/22 01:29:27;;;;;;;7.20;4.28;;;;;;;13.54;57.22;98949.58;1870663;76;22148;-59
2021/05/22 01:32:02;;;;;;;9.43;4.10;;;;;;;13.53;57.23;98960.79;1870682;76;22610;-59
2021/05/22 01:34:56;;;;;;;8.68;4.60;;;;;;;13.50;57.52;98955.61;1861043;75;22189;-58
2021/05/22 01:37:31;;;;;;;9.38;4.20;;;;;;;13.49;57.60;98954.76;1870679;76;22604;-59
2021/05/22 01:40:18;;;;;;;6.60;3.98;;;;;;;13.42;57.67;98960.80;1760355;80;21599;-59
2021/05/22 01:42:53;;;;;;;9.45;4.25;;;;;;;13.45;57.77;98959.50;1870712;76;22217;-58
2021/05/22 01:45:32;;;;;;;6.83;3.95;;;;;;;13.45;57.68;98962.95;1870684;76;22148;-56
2021/05/22 01:48:27;;;;;;;7.12;3.60;;;;;;;13.46;57.72;98956.06;1872502;75;22189;-57
2021/05/22 01:51:19;;;;;;;7.40;3.75;;;;;;;13.46;57.77;98957.36;1870830;76;22125;-58
2021/05/22 01:53:53;;;;;;;6.78;3.25;;;;;;;13.48;57.68;98960.78;1870839;76;22560;-60
2021/05/22 01:56:27;;;;;;;5.90;3.70;;;;;;;13.47;57.83;98961.66;1889963;76;22112;-59
2021/05/22 01:59:03;;;;;;;7.83;3.98;;;;;;;13.49;57.76;98964.27;1870671;76;22215;-60
2021/05/22 02:01:38;;;;;;;6.92;4.08;;;;;;;13.50;57.58;98965.55;1873941;76;27944;-59
2021/05/22 02:04:14;;;;;;;6.20;3.10;;;;;;;13.54;57.67;98968.58;1889979;76;22600;-59
2021/05/22 02:06:51;;;;;;;6.60;3.95;;;;;;;13.55;57.60;98974.19;1854934;76;27930;-59
2021/05/22 02:09:39;;;;;;;6.03;3.15;;;;;;;13.55;57.52;98967.70;1760401;81;21098;-58
2021/05/22 02:12:14;;;;;;;11.50;3.80;;;;;;;13.60;57.48;98960.78;1870593;76;22109;-58
2021/05/22 02:14:52;;;;;;;8.88;4.30;;;;;;;13.62;57.55;98961.65;1870558;76;22137;-58
2021/05/22 02:17:27;;;;;;;7.28;3.58;;;;;;;13.64;57.49;98963.81;1870682;76;22113;-59
2021/05/22 02:20:04;;;;;;;7.25;3.72;;;;;;;13.66;57.34;98967.27;1854838;76;28302;-60
2021/05/22 02:22:42;;;;;;;5.37;3.25;;;;;;;13.72;57.11;98965.53;1870672;76;22153;-59
2021/05/22 02:25:17;;;;;;;5.87;3.40;;;;;;;13.72;57.03;98965.53;1889983;76;22140;-59
2021/05/22 02:27:54;;;;;;;7.30;3.95;;;;;;;13.73;57.10;98975.03;1854674;76;28334;-59
2021/05/22 02:30:42;;;;;;;6.60;3.55;;;;;;;13.72;57.00;98971.58;1827891;77;21102;-58
2021/05/22 02:33:19;;;;;;;6.65;3.85;;;;;;;13.77;57.01;98974.17;1889941;76;22132;-59
2021/05/22 02:35:55;;;;;;;10.28;4.30;;;;;;;13.74;57.15;98978.04;1870968;76;22177;-58
2021/05/22 02:38:47;;;;;;;6.60;3.50;;;;;;;13.74;57.50;98980.64;1870573;76;22177;-58
2021/05/22 02:41:23;;;;;;;8.68;4.15;;;;;;;13.74;57.56;98976.75;1890098;76;22554;-59
2021/05/22 02:44:00;;;;;;;9.85;4.10;;;;;;;13.72;57.51;98974.61;1870713;76;20351;-59
2021/05/22 02:46:54;;;;;;;7.25;4.08;;;;;;;13.70;57.73;98978.49;1873494;75;22189;-56
2021/05/22 02:49:30;;;;;;;8.68;4.37;;;;;;;13.70;57.79;98979.79;1890055;76;22116;-61
2021/05/22 02:52:06;;;;;;;10.63;4.50;;;;;;;13.68;57.84;98975.03;1889963;76;22116;-59
2021/05/22 02:54:45;;;;;;;7.15;4.67;;;;;;;13.70;58.03;98984.98;1889971;76;22108;-59
2021/05/22 02:57:21;;;;;;;7.60;4.40;;;;;;;13.72;58.12;98988.88;1889985;76;22144;-57
2021/05/22 02:59:57;;;;;;;9.93;5.17;;;;;;;13.73;58.18;98990.59;1854814;76;27938;-59
2021/05/22 03:02:34;;;;;;;8.88;4.33;;;;;;;13.79;58.29;98996.64;1870662;76;22140;-60
2021/05/22 03:05:13;;;;;;;7.85;3.67;;;;;;;13.81;58.19;98997.48;1889969;76;22148;-59
2021/05/22 03:07:47;;;;;;;10.45;4.62;;;;;;;13.82;58.17;98998.38;1870810;76;22547;-59
2021/05/22 03:10:22;;;;;;;9.48;4.08;;;;;;;13.84;58.06;99003.98;1870694;76;22132;-58
2021/05/22 03:12:57;;;;;;;9.90;3.92;;;;;;;13.87;58.06;99007.02;1870716;76;22117;-59
2021/05/22 03:15:33;;;;;;;6.60;3.55;;;;;;;13.90;57.88;99008.30;1889951;76;22155;-60
2021/05/22 03:18:08;;;;;;;9.20;4.58;;;;;;;13.92;57.93;99004.38;1854726;76;27863;-60
2021/05/22 03:20:42;;;;;;;10.70;3.80;;;;;;;13.98;57.85;99013.03;1870686;76;22141;-60
2021/05/22 03:23:17;;;;;;;6.20;3.98;;;;;;;14.03;57.80;99010.43;1870644;76;22548;-59
2021/05/22 03:25:52;;;;;;;7.80;4.28;;;;;;;14.04;57.75;99010.44;1870665;76;22274;-58
2021/05/22 03:28:27;;;;;;;12.70;5.10;;;;;;;14.07;57.57;99005.23;1870714;76;22109;-60
2021/05/22 03:31:12;;;;;;;6.25;3.52;;;;;;;14.04;57.58;99017.34;1760295;81;21134;-59
2021/05/22 03:34:06;;;;;;;8.75;4.37;;;;;;;14.11;57.34;99013.42;1878654;75;22612;-60
2021/05/22 03:36:41;;;;;;;7.15;3.52;;;;;;;14.11;57.61;99016.02;1870802;76;22105;-60
2021/05/22 03:39:27;;;;;;;7.78;3.72;;;;;;;14.10;57.42;99012.16;1827798;77;21157;-60
2021/05/22 03:42:01;;;;;;;7.70;3.87;;;;;;;14.18;57.70;99008.23;1890123;76;22139;-60
2021/05/22 03:44:36;;;;;;;8.23;4.25;;;;;;;14.23;57.39;99015.58;1889974;76;22145;-59
2021/05/22 03:47:11;;;;;;;9.53;4.22;;;;;;;14.23;57.39;99019.03;1889972;76;22120;-59
2021/05/22 03:49:46;;;;;;;5.65;3.85;;;;;;;14.23;57.40;99016.88;1889946;76;22555;-60
2021/05/22 03:52:31;;;;;;;8.00;4.33;;;;;;;14.15;57.60;99021.23;1791806;80;21572;-60
2021/05/22 03:55:09;;;;;;;10.53;4.40;;;;;;;14.16;57.59;99021.64;1870699;76;22156;-59
2021/05/22 03:57:43;;;;;;;8.28;4.75;;;;;;;14.16;58.03;99016.02;1850834;77;22135;-60
2021/05/22 04:00:19;;;;;;;7.72;4.30;;;;;;;14.21;58.13;99031.58;1889969;76;22116;-60
2021/05/22 04:02:54;;;;;;;9.18;4.62;;;;;;;14.30;58.46;99031.13;1890097;76;20093;-60
2021/05/22 04:05:28;;;;;;;7.70;4.37;;;;;;;14.47;58.13;99040.58;1835128;77;22160;-58
2021/05/22 04:08:04;;;;;;;9.50;4.60;;;;;;;14.58;57.91;99045.76;1890008;76;22116;-59
2021/05/22 04:10:39;;;;;;;10.18;5.08;;;;;;;14.63;57.61;99051.80;1873899;76;27914;-60
2021/05/22 04:13:13;;;;;;;9.55;4.55;;;;;;;14.73;57.47;99055.67;1870673;76;22113;-61
2021/05/22 04:15:48;;;;;;;9.68;4.75;;;;;;;14.69;57.60;99056.98;1870664;76;22117;-59
2021/05/22 04:18:22;;;;;;;10.40;4.30;;;;;;;14.68;58.06;99055.23;1870771;76;22552;-61
2021/05/22 04:20:57;;;;;;;10.98;4.72;;;;;;;14.71;58.02;99060.45;1870663;76;22149;-60
2021/05/22 04:23:32;;;;;;;10.38;4.40;;;;;;;14.75;57.96;99058.25;1870659;76;22137;-60
2021/05/22 04:26:08;;;;;;;9.63;4.55;;;;;;;14.81;58.00;99058.23;1854866;76;28310;-59
2021/05/22 04:28:42;;;;;;;9.45;4.50;;;;;;;14.88;57.85;99050.84;1870692;76;22105;-61
2021/05/22 04:31:17;;;;;;;8.03;3.45;;;;;;;14.94;57.89;99057.74;1870704;76;22120;-61
2021/05/22 04:33:51;;;;;;;7.95;3.95;;;;;;;15.00;57.63;99058.14;1870721;76;22486;-60
2021/05/22 04:36:26;;;;;;;12.65;4.05;;;;;;;15.03;57.76;99042.52;1889946;76;22144;-60
2021/05/22 04:39:01;;;;;;;6.83;3.90;;;;;;;15.09;57.25;99048.56;1870640;76;22227;-61
2021/05/22 04:41:35;;;;;;;8.10;4.55;;;;;;;15.19;56.94;99046.77;1890004;76;22112;-60
2021/05/22 04:44:10;;;;;;;10.75;4.60;;;;;;;15.25;57.06;99048.02;1870660;76;22567;-61
2021/05/22 04:46:44;;;;;;;6.70;4.22;;;;;;;15.37;56.88;99053.59;1889945;76;22140;-61
2021/05/22 04:49:19;;;;;;;8.75;4.05;;;;;;;15.43;56.96;99052.23;1870685;76;22120;-61
2021/05/22 04:51:56;;;;;;;9.30;4.45;;;;;;;15.53;56.52;99056.48;1854626;76;28326;-61
2021/05/22 04:54:37;;;;;;;10.35;4.03;;;;;;;15.71;56.37;99056.81;1869824;76;22161;-61
2021/05/22 04:57:11;;;;;;;9.88;3.62;;;;;;;15.84;56.01;99057.13;1870801;76;22108;-63
2021/05/22 04:59:46;;;;;;;8.75;3.80;;;;;;;16.00;55.88;99054.38;1889924;76;22120;-60
2021/05/22 05:02:21;;;;;;;13.13;4.10;;;;;;;16.12;55.69;99062.07;1870557;76;22139;-60
2021/05/22 05:04:55;;;;;;;8.35;3.40;;;;;;;16.24;55.56;99058.05;1889862;76;22547;-59
2021/05/22 05:07:31;;;;;;;8.10;3.90;;;;;;;16.40;54.49;99055.28;1890049;76;22155;-61
2021/05/22 05:10:25;;;;;;;7.17;3.75;;;;;;;16.57;54.24;99056.40;1872457;75;22209;-61
2021/05/22 05:13:00;;;;;;;5.60;3.02;;;;;;;16.76;53.88;99064.39;1889949;76;22530;-63
2021/05/22 05:15:35;;;;;;;6.60;3.30;;;;;;;16.97;53.17;99063.31;1870702;76;22230;-60
2021/05/22 05:18:10;;;;;;;7.40;3.67;;;;;;;17.11;52.76;99057.89;1870697;76;22129;-60
2021/05/22 05:20:45;;;;;;;8.83;3.58;;;;;;;17.20;52.28;99055.59;1854771;76;38640;-62
2021/05/22 05:23:20;;;;;;;11.33;3.87;;;;;;;17.35;51.46;99058.86;1851489;76;22168;-62
2021/05/22 05:26:07;;;;;;;7.42;3.42;;;;;;;17.41;51.90;99075.30;1813012;78;21170;-62
2021/05/22 05:28:42;;;;;;;6.62;3.42;;;;;;;17.61;52.14;99056.73;1860996;76;22187;-60
2021/05/22 05:31:17;;;;;;;5.72;3.10;;;;;;;17.82;51.52;99048.56;1852415;76;22247;-61
2021/05/22 05:33:55;;;;;;;7.53;2.95;;;;;;;18.03;49.91;99055.61;1853609;76;22156;-60
2021/05/22 05:36:29;;;;;;;7.62;2.30;;;;;;;18.26;49.60;99065.18;1860743;76;22664;-62
2021/05/22 05:39:05;;;;;;;5.45;2.70;;;;;;;18.96;48.41;99068.64;1851726;76;22176;-61
2021/05/22 05:41:39;;;;;;;7.92;2.83;;;;;;;20.51;45.37;99076.20;1854649;76;27933;-68
2021/05/22 05:44:25;;;;;;;8.43;2.50;;;;;;;21.40;42.04;99071.02;1760402;80;21145;-67
2021/05/22 05:46:59;;;;;;;4.87;2.17;;;;;;;22.63;39.35;99093.18;1861973;76;22132;-70
2021/05/22 05:49:34;;;;;;;7.75;2.62;;;;;;;22.76;39.33;99088.33;1855136;76;22571;-65
2021/05/22 05:52:19;;;;;;;4.78;1.67;;;;;;;23.39;38.36;99101.31;1824919;78;21166;-70
2021/05/22 05:54:55;;;;;;;5.92;2.30;;;;;;;23.34;37.02;99095.83;1854580;76;38619;-68
2021/05/22 05:57:31;;;;;;;3.98;1.62;;;;;;;23.51;35.33;99084.17;1870373;76;20355;-67
2021/05/22 06:00:13;;;;;;;6.72;2.08;;;;;;;24.15;34.76;99094.34;1865479;76;22594;-68
2021/05/22 06:02:58;;;;;;;6.78;1.87;;;;;;;25.08;33.79;99109.14;1830595;78;21152;-67
2021/05/22 06:05:33;;;;;;;3.00;1.22;;;;;;;25.51;32.21;99101.87;1889911;76;22144;-67
2021/05/22 06:08:07;;;;;;;3.25;1.50;;;;;;;25.10;32.95;99116.54;1870006;76;22135;-68
2021/05/22 06:10:42;;;;;;;2.45;1.15;;;;;;;25.02;32.66;99114.72;1870546;76;22547;-67
2021/05/22 06:13:30;;;;;;;10.63;1.60;;;;;;;25.29;33.12;99131.97;1869705;76;22178;-67
2021/05/22 06:18:43;;;;;;;2.77;1.35;;;;;;;26.59;30.29;99134.00;1835024;77;22239;-66
2021/05/22 06:21:18;;;;;;;5.90;1.65;;;;;;;26.89;29.21;99118.73;1870572;76;22521;-69
2021/05/22 06:23:53;;;;;;;2.65;1.35;;;;;;;27.06;28.50;99143.00;1870673;76;22113;-69
2021/05/22 06:26:40;;;;;;;6.33;1.95;;;;;;;26.91;28.60;99153.94;1753854;80;21137;-69
2021/05/22 06:29:14;;;;;;;4.78;1.30;;;;;;;27.12;29.29;99158.58;1862434;76;22187;-71
2021/05/22 06:31:49;;;;;;;5.90;1.45;;;;;;;27.92;27.79;99159.03;1889925;76;22140;-67
2021/05/22 06:34:24;;;;;;;3.35;1.50;;;;;;;28.77;26.79;99157.58;1870578;76;22619;-63
2021/05/22 06:36:59;;;;;;;2.42;1.37;;;;;;;29.62;26.16;99161.17;1886089;76;22159;-60
2021/05/22 06:39:45;;;;;;;5.03;1.12;;;;;;;30.34;25.18;99168.94;1834566;77;21249;-65
2021/05/22 06:42:21;;;;;;;3.58;1.10;;;;;;;30.97;24.70;99177.14;1859850;76;22092;-61
2021/05/22 06:45:11;;;;;;;3.50;1.15;;;;;;;31.70;23.56;99162.56;1865453;76;20469;-60
2021/05/22 06:47:45;;;;;;;6.10;1.37;;;;;;;31.14;23.88;99161.66;1889461;76;22636;-63
2021/05/22 06:50:25;;;;;;;5.40;1.35;;;;;;;30.30;24.43;99160.77;1889845;76;22247;-62
2021/05/22 06:53:01;;;;;;;4.58;1.10;;;;;;;30.19;24.85;99165.94;1889894;76;22046;-61
2021/05/22 06:55:36;;;;;;;2.05;1.02;;;;;;;30.42;24.15;99170.59;1889758;76;20096;-62
2021/05/22 06:58:18;;;;;;;6.50;1.20;;;;;;;30.88;23.72;99168.80;1887470;76;22192;-61
2021/05/22 07:00:53;;;;;;;2.40;1.10;;;;;;;30.91;23.39;99171.73;1870005;76;22671;-65
2021/05/22 07:03:28;;;;;;;3.12;1.30;;;;;;;30.28;24.27;99174.20;1889905;76;22615;-62
2021/05/22 07:06:03;;;;;;;6.42;1.10;;;;;;;30.05;24.38;99163.72;1870758;76;22252;-63
2021/05/22 07:08:39;;;;;;;3.25;1.02;;;;;;;30.58;23.43;99153.56;1854863;76;32200;-63
2021/05/22 07:11:15;;;;;;;4.33;1.10;;;;;;;30.84;23.10;99147.83;1870546;76;22537;-63
2021/05/22 07:13:51;;;;;;;2.70;1.20;;;;;;;30.99;22.82;99148.53;1870575;76;22493;-62
2021/05/22 07:16:26;;;;;;;2.90;1.05;;;;;;;30.95;22.96;99151.06;1870572;76;22106;-62
2021/05/22 07:19:01;;;;;;;7.12;1.00;;;;;;;31.13;22.51;99145.27;1870508;76;22047;-62
2021/05/22 07:21:35;;;;;;;2.30;0.93;;;;;;;30.75;23.28;99154.59;1870587;76;22240;-63
2021/05/22 07:24:10;;;;;;;2.77;0.90;;;;;;;31.24;23.10;99160.98;1870704;76;22078;-59
2021/05/22 07:26:46;;;;;;;4.42;1.00;;;;;;;31.66;22.29;99142.39;1853331;76;22096;-63
2021/05/22 07:29:40;;;;;;;3.62;1.30;;;;;;;31.48;23.16;99159.27;1867370;75;22236;-62
2021/05/22 07:32:14;;;;;;;1.37;1.10;;;;;;;31.29;23.11;99151.69;1870562;76;22256;-62
2021/05/22 07:34:49;;;;;;;2.80;0.95;;;;;;;31.13;23.32;99149.75;1886959;76;22773;-62
2021/05/22 07:37:26;;;;;;;1.87;0.95;;;;;;;31.25;23.25;99159.55;1846766;76;22152;-60
2021/05/22 07:40:02;;;;;;;4.87;0.90;;;;;;;31.43;22.86;99160.56;1860134;76;27883;-60
2021/05/22 07:42:38;;;;;;;4.00;0.80;;;;;;;31.92;22.63;99150.29;1870391;76;22056;-61
2021/05/22 07:45:25;;;;;;;8.58;1.20;;;;;;;32.20;21.92;99160.63;1827418;78;21126;-60
2021/05/22 07:48:00;;;;;;;3.98;0.90;;;;;;;31.98;22.65;99137.38;1889863;76;22167;-60
2021/05/22 07:50:36;;;;;;;2.87;0.70;;;;;;;32.26;22.42;99139.77;1870506;76;22086;-61
2021/05/22 07:53:10;;;;;;;2.60;0.93;;;;;;;32.48;22.44;99142.54;1854766;76;38631;-60
2021/05/22 07:55:47;;;;;;;2.98;1.20;;;;;;;32.83;21.61;99146.98;1854626;76;27916;-61
2021/05/22 07:58:33;;;;;;;2.75;1.12;;;;;;;33.12;21.58;99135.33;1827558;78;21601;-62
2021/05/22 08:01:08;;;;;;;2.15;0.80;;;;;;;32.98;21.73;99144.92;1858924;76;22175;-61
2021/05/22 08:03:42;;;;;;;3.42;0.90;;;;;;;32.31;21.92;99146.45;1857310;76;22151;-62
2021/05/22 08:06:18;;;;;;;1.62;0.70;;;;;;;32.10;21.65;99142.27;1850159;76;22512;-60
2021/05/22 08:09:04;;;;;;;2.62;1.20;;;;;;;31.48;22.58;99131.75;1758618;81;21243;-60
2021/05/22 08:11:39;;;;;;;3.33;1.10;;;;;;;30.96;22.59;99144.76;1862119;76;22108;-61
2021/05/22 08:14:14;;;;;;;2.22;0.93;;;;;;;31.07;22.75;99142.20;1859876;76;22508;-63
2021/05/22 08:16:49;;;;;;;3.40;0.78;;;;;;;31.10;22.25;99148.65;1827294;77;22544;-61
2021/05/22 08:19:24;;;;;;;2.52;0.78;;;;;;;30.67;22.60;99136.96;1856611;76;22265;-61
2021/05/22 08:21:59;;;;;;;3.50;0.98;;;;;;;30.15;23.38;99128.03;1870579;76;22087;-60
2021/05/22 08:24:53;;;;;;;3.22;1.20;;;;;;;29.46;23.88;99132.99;1876424;75;22216;-61
2021/05/22 08:27:29;;;;;;;7.33;0.90;;;;;;;29.61;24.15;99124.87;1870307;76;22110;-60
2021/05/22 08:30:23;;;;;;;1.72;0.70;;;;;;;29.37;22.92;99086.59;1867754;75;22622;-63
2021/05/22 08:33:11;;;;;;;3.02;0.82;;;;;;;28.65;23.84;99118.52;1870453;76;22142;-60
2021/05/22 08:35:46;;;;;;;6.78;1.00;;;;;;;27.88;24.75;99118.17;1870592;76;22240;-60
2021/05/22 08:38:21;;;;;;;2.72;0.85;;;;;;;27.91;25.06;99121.97;1875275;76;22498;-60
2021/05/22 08:40:56;;;;;;;3.08;1.25;;;;;;;27.87;25.12;99109.84;1870530;76;22070;-61
2021/05/22 08:43:31;;;;;;;4.28;1.15;;;;;;;27.51;26.10;99096.88;1854448;76;28001;-62
2021/05/22 08:46:10;;;;;;;3.80;0.90;;;;;;;27.64;26.12;99078.84;1869748;76;22444;-61
2021/05/22 08:48:46;;;;;;;4.80;1.12;;;;;;;27.93;25.14;99099.72;1888622;76;22153;-62
2021/05/22 08:51:21;;;;;;;6.30;0.98;;;;;;;28.07;24.86;99092.77;1870499;76;22208;-60
2021/05/22 08:54:08;;;;;;;5.15;1.25;;;;;;;27.85;24.84;99091.36;1760432;81;21137;-61
2021/05/22 08:56:43;;;;;;;4.00;0.78;;;;;;;27.77;25.42;99102.00;1889839;76;22215;-59
2021/05/22 08:59:19;;;;;;;1.92;0.98;;;;;;;27.53;26.53;99096.28;1889816;76;22167;-61
2021/05/22 09:02:04;;;;;;;2.10;1.00;;;;;;;27.01;26.85;99099.53;1791475;80;21280;-64
2021/05/22 09:05:21;;;;;;;5.08;1.10;;;;;;;26.74;26.43;99075.42;1869660;76;22159;-61
2021/05/22 09:08:00;;;;;;;2.75;1.02;;;;;;;26.55;26.49;99094.05;1870479;76;22189;-60
2021/05/22 09:10:39;;;;;;;3.92;0.98;;;;;;;26.30;25.16;99090.47;1835133;77;22161;-60
2021/05/22 09:13:29;;;;;;;3.33;0.80;;;;;;;26.17;25.98;99082.30;1869721;76;22161;-59
2021/05/22 09:16:21;;;;;;;1.90;0.90;;;;;;;26.10;27.49;99081.38;1870346;76;22140;-63
2021/05/22 09:19:03;;;;;;;3.90;1.37;;;;;;;25.91;28.01;99077.02;1889737;76;22276;-62
2021/05/22 09:21:39;;;;;;;2.77;1.05;;;;;;;25.72;28.10;99077.06;1889856;76;22156;-63
2021/05/22 09:24:20;;;;;;;2.35;1.10;;;;;;;25.46;28.56;99073.50;1869718;76;22168;-63
2021/05/22 09:27:00;;;;;;;3.47;1.00;;;;;;;25.28;28.88;99072.13;1870557;76;22185;-61
2021/05/22 09:29:38;;;;;;;2.67;1.05;;;;;;;25.02;28.66;99050.88;1870597;76;22128;-60
2021/05/22 09:32:14;;;;;;;4.00;1.00;;;;;;;24.41;28.19;99052.32;1870589;76;22185;-59
2021/05/22 09:34:59;;;;;;;3.65;1.30;;;;;;;23.76;30.45;99059.48;1827672;78;21118;-67
2021/05/22 09:37:45;;;;;;;5.00;1.27;;;;;;;23.63;31.39;99060.41;1834866;77;28100;-67
2021/05/22 09:40:28;;;;;;;4.10;1.30;;;;;;;23.86;32.48;99052.05;1854436;76;28280;-66
2021/05/22 09:43:07;;;;;;;3.17;1.20;;;;;;;24.00;32.22;99058.45;1870521;76;22117;-53
2021/05/22 09:45:53;;;;;;;6.33;1.50;;;;;;;24.00;32.18;99053.19;1760371;80;21708;-65
2021/05/22 09:48:28;;;;;;;3.25;1.55;;;;;;;24.03;31.14;99053.05;1889938;76;22108;-63
2021/05/22 09:51:05;;;;;;;8.55;1.30;;;;;;;23.84;31.51;99053.45;1870324;76;22151;-64
2021/05/22 09:53:40;;;;;;;2.12;1.07;;;;;;;23.51;30.84;99036.77;1870504;76;22156;-64
2021/05/22 09:56:22;;;;;;;3.50;1.37;;;;;;;23.30;31.24;99043.72;1854552;76;38204;-64
2021/05/22 09:59:13;;;;;;;4.37;1.20;;;;;;;23.02;30.95;99017.63;1760578;81;21280;-61
2021/05/22 10:01:48;;;;;;;5.20;1.20;;;;;;;22.80;31.46;99046.99;1870568;76;22140;-63
2021/05/22 10:04:23;;;;;;;3.25;1.10;;;;;;;22.62;29.82;99013.88;1870504;76;22192;-58
2021/05/22 10:06:57;;;;;;;3.10;1.15;;;;;;;22.42;31.24;99044.84;1889923;76;22613;-60
2021/05/22 10:09:32;;;;;;;2.05;1.00;;;;;;;22.33;31.21;99038.13;1870616;76;22535;-60
2021/05/22 10:12:11;;;;;;;2.50;1.20;;;;;;;22.30;30.82;99026.41;1870590;76;22190;-60
2021/05/22 10:14:45;;;;;;;3.65;1.65;;;;;;;22.23;30.90;99040.69;1870633;76;22120;-60
2021/05/22 10:17:20;;;;;;;2.33;1.07;;;;;;;22.06;31.93;99019.38;1854629;76;27868;-61
2021/05/22 10:19:56;;;;;;;3.33;1.55;;;;;;;21.99;31.95;99021.36;1889760;76;22144;-60
2021/05/22 10:22:51;;;;;;;4.40;1.50;;;;;;;21.89;32.62;99022.59;1867195;75;27938;-59
2021/05/22 10:25:55;;;;;;;3.30;1.10;;;;;;;21.97;33.15;99012.66;1876079;75;22180;-60
2021/05/22 10:28:30;;;;;;;6.17;1.50;;;;;;;22.02;32.90;99002.00;1889919;76;22104;-60
2021/05/22 10:31:04;;;;;;;2.70;1.20;;;;;;;21.78;33.72;98992.74;1870561;76;22207;-61
2021/05/22 10:33:39;;;;;;;2.25;1.12;;;;;;;21.80;33.67;99009.28;1889833;76;22155;-61
2021/05/22 10:36:37;;;;;;;2.75;1.07;;;;;;;21.86;34.16;99000.36;1873750;76;27926;-61
2021/05/22 10:39:43;;;;;;;5.35;1.37;;;;;;;22.16;32.99;98990.98;1870620;76;22191;-61
2021/05/22 10:42:29;;;;;;;3.00;1.20;;;;;;;22.11;34.61;98983.28;1889910;76;22124;-59
2021/05/22 10:45:31;;;;;;;3.27;1.30;;;;;;;22.15;34.14;98983.55;1877040;75;22185;-60
2021/05/22 10:48:21;;;;;;;4.08;1.35;;;;;;;22.29;34.15;98994.94;1870625;76;22571;-60
2021/05/22 10:50:57;;;;;;;4.37;1.72;;;;;;;22.49;33.29;98978.40;1870414;76;22242;-58
2021/05/22 10:53:34;;;;;;;2.67;1.22;;;;;;;22.51;33.76;98981.84;1873894;76;27855;-60
2021/05/22 10:56:16;;;;;;;5.42;1.42;;;;;;;22.57;33.72;98983.38;1854905;76;28282;-59
2021/05/22 10:59:09;;;;;;;4.55;1.52;;;;;;;22.53;34.26;98972.13;1870539;76;22461;-65
2021/05/22 11:01:46;;;;;;;3.62;1.22;;;;;;;22.43;34.58;98967.66;1870600;76;22271;-66
2021/05/22 11:04:40;;;;;;;4.08;1.10;;;;;;;22.32;35.10;98969.38;1861282;75;28345;-66
2021/05/22 11:07:18;;;;;;;6.22;1.80;;;;;;;22.52;34.83;98978.31;1854624;76;28267;-66
2021/05/22 11:09:55;;;;;;;2.95;1.30;;;;;;;22.53;34.50;98949.77;1870454;76;22609;-64
2021/05/22 11:12:44;;;;;;;4.75;1.10;;;;;;;22.64;33.20;98934.41;1827552;77;21284;-62
2021/05/22 11:15:47;;;;;;;4.62;1.30;;;;;;;22.81;32.60;98953.97;1873801;76;28287;-64
2021/05/22 11:18:47;;;;;;;2.40;1.10;;;;;;;23.03;32.78;98953.56;1865912;75;22172;-65
2021/05/22 11:21:41;;;;;;;3.62;1.20;;;;;;;23.24;33.34;98942.61;1867284;75;22202;-65
2021/05/22 11:24:16;;;;;;;3.55;1.22;;;;;;;23.35;31.77;98932.94;1870596;76;22587;-63
2021/05/22 11:26:54;;;;;;;3.02;1.30;;;;;;;23.31;31.84;98937.48;1889919;76;22144;-65
2021/05/22 11:29:54;;;;;;;6.05;1.52;;;;;;;23.16;32.31;98941.60;1875806;75;22279;-63
2021/05/22 11:32:59;;;;;;;4.40;1.30;;;;;;;23.07;33.08;98939.33;1869669;76;22202;-65
2021/05/22 11:35:50;;;;;;;2.25;1.30;;;;;;;22.98;33.94;98951.56;1870493;76;22141;-63
2021/05/22 11:38:36;;;;;;;2.75;1.40;;;;;;;22.89;33.77;98946.63;1870523;76;22200;-64
2021/05/22 11:41:14;;;;;;;4.08;1.37;;;;;;;23.07;33.50;98944.59;1846888;76;22663;-64
2021/05/22 11:43:49;;;;;;;3.92;1.20;;;;;;;23.32;33.05;98921.22;1870572;76;22125;-64
2021/05/22 11:46:26;;;;;;;4.87;1.17;;;;;;;23.09;33.14;98930.92;1889852;76;22595;-65
2021/05/22 11:48:58;;;;;;;6.65;1.25;;;;;;;23.11;33.12;98947.52;1870736;76;22117;-63
2021/05/22 11:51:38;;;;;;;3.72;1.27;;;;;;;23.20;33.26;98937.05;1870563;76;22575;-63
2021/05/22 11:54:18;;;;;;;2.40;1.02;;;;;;;23.27;32.91;98938.99;1870033;76;22136;-63
2021/05/22 11:56:50;;;;;;;4.40;1.15;;;;;;;23.29;32.62;98927.94;1870715;76;22122;-65
2021/05/22 11:59:25;;;;;;;2.12;1.22;;;;;;;23.19;32.86;98912.52;1870550;76;22595;-64
2021/05/22 12:02:00;;;;;;;4.58;1.40;;;;;;;23.22;32.85;98929.95;1870577;76;22140;-64
2021/05/22 12:04:39;;;;;;;7.87;1.60;;;;;;;23.39;32.89;98926.63;1870567;76;22184;-62
2021/05/22 12:07:09;;;;;;;3.85;1.27;;;;;;;23.61;32.78;98918.22;1870732;76;22638;-63
2021/05/22 12:09:44;;;;;;;4.78;1.22;;;;;;;23.82;32.25;98924.83;1870623;76;22140;-63
2021/05/22 12:12:29;;;;;;;3.65;1.40;;;;;;;23.92;31.83;98920.02;1870599;76;22129;-65
2021/05/22 12:15:06;;;;;;;4.15;1.20;;;;;;;24.01;31.78;98909.05;1889845;76;22119;-60
2021/05/22 12:17:44;;;;;;;6.45;1.27;;;;;;;23.94;31.73;98911.12;1870592;76;22121;-60
2021/05/22 12:20:19;;;;;;;4.12;1.40;;;;;;;23.71;31.91;98918.69;1889834;76;22535;-61
2021/05/22 12:22:55;;;;;;;4.97;1.45;;;;;;;23.48;32.62;98893.77;1870498;76;22661;-58
2021/05/22 12:25:36;;;;;;;2.42;1.12;;;;;;;23.52;32.67;98894.89;1889833;76;22167;-61
2021/05/22 12:28:10;;;;;;;4.50;1.32;;;;;;;23.55;32.47;98885.53;1889907;76;22152;-60
2021/05/22 12:30:46;;;;;;;2.60;1.10;;;;;;;23.52;32.59;98899.31;1870601;76;22129;-61